Terminal Aerodrome Forecast
Issued by NWS

Current Version | Previous Version | Text Only | Print | Product List | Glossary On
Versions: 1 2 3 4 5 6 7 8 9 10 11 12 13
146
FTUS46 KLOX 261127
TAFVNY
TAF
KVNY 261127Z 2612/2712 35012KT P6SM BKN200 WS010/02030KT
     FM261900 01015G22KT P6SM BKN200
     FM270300 35010KT P6SM BKN200=

USA.gov is the U.S. government's official web portal to all federal, state and local government web resources and services.